sensor_id;sensor_type;location;lat;lon;timestamp;pressure;altitude;pressure_sealevel;temperature;humidity
50430;BME280;36359;41.556;-8.418;2023-02-23T00:01:39;100447.97;;;9.28;77.19
50430;BME280;36359;41.556;-8.418;2023-02-23T00:04:06;100445.56;;;9.35;78.04
50430;BME280;36359;41.556;-8.418;2023-02-23T00:06:34;100451.59;;;9.48;78.94
50430;BME280;36359;41.556;-8.418;2023-02-23T00:09:01;100440.75;;;9.58;79.78
50430;BME280;36359;41.556;-8.418;2023-02-23T00:11:31;100445.50;;;9.95;77.13
50430;BME280;36359;41.556;-8.418;2023-02-23T00:13:58;100448.19;;;9.85;77.34
50430;BME280;36359;41.556;-8.418;2023-02-23T00:16:25;100442.50;;;9.98;75.87
50430;BME280;36359;41.556;-8.418;2023-02-23T00:18:54;100446.34;;;9.57;76.36
50430;BME280;36359;41.556;-8.418;2023-02-23T00:21:28;100444.59;;;9.55;76.22
50430;BME280;36359;41.556;-8.418;2023-02-23T00:24:14;100443.31;;;9.40;84.18
50430;BME280;36359;41.556;-8.418;2023-02-23T00:26:41;100447.22;;;9.76;77.48
50430;BME280;36359;41.556;-8.418;2023-02-23T00:29:11;100440.72;;;9.29;78.84
50430;BME280;36359;41.556;-8.418;2023-02-23T00:31:37;100441.88;;;9.36;79.21
50430;BME280;36359;41.556;-8.418;2023-02-23T00:34:04;100436.97;;;9.20;80.46
50430;BME280;36359;41.556;-8.418;2023-02-23T00:36:33;100435.53;;;9.06;81.39
50430;BME280;36359;41.556;-8.418;2023-02-23T00:39:01;100440.97;;;8.76;83.58
50430;BME280;36359;41.556;-8.418;2023-02-23T00:41:27;100444.34;;;8.68;84.59
50430;BME280;36359;41.556;-8.418;2023-02-23T00:43:56;100443.34;;;8.69;84.04
50430;BME280;36359;41.556;-8.418;2023-02-23T00:46:24;100441.72;;;8.36;85.52
50430;BME280;36359;41.556;-8.418;2023-02-23T00:48:52;100438.84;;;8.49;85.83
50430;BME280;36359;41.556;-8.418;2023-02-23T00:51:20;100432.75;;;8.35;88.69
50430;BME280;36359;41.556;-8.418;2023-02-23T00:53:47;100428.06;;;8.37;85.41
50430;BME280;36359;41.556;-8.418;2023-02-23T00:56:14;100428.31;;;8.55;84.86
50430;BME280;36359;41.556;-8.418;2023-02-23T00:58:41;100426.38;;;8.67;86.85
50430;BME280;36359;41.556;-8.418;2023-02-23T01:01:08;100430.09;;;8.66;83.93
50430;BME280;36359;41.556;-8.418;2023-02-23T01:03:35;100436.78;;;8.62;83.75
50430;BME280;36359;41.556;-8.418;2023-02-23T01:06:04;100429.19;;;8.35;84.78
50430;BME280;36359;41.556;-8.418;2023-02-23T01:08:32;100419.97;;;8.16;85.36
50430;BME280;36359;41.556;-8.418;2023-02-23T01:10:59;100428.00;;;8.28;85.57
50430;BME280;36359;41.556;-8.418;2023-02-23T01:13:30;100430.25;;;8.23;85.76
50430;BME280;36359;41.556;-8.418;2023-02-23T01:15:56;100416.31;;;8.38;85.41
50430;BME280;36359;41.556;-8.418;2023-02-23T01:18:24;100426.16;;;8.49;84.87
50430;BME280;36359;41.556;-8.418;2023-02-23T01:20:49;100417.94;;;8.51;84.83
50430;BME280;36359;41.556;-8.418;2023-02-23T01:23:15;100420.06;;;8.47;84.37
50430;BME280;36359;41.556;-8.418;2023-02-23T01:25:43;100418.00;;;9.01;86.85
50430;BME280;36359;41.556;-8.418;2023-02-23T01:28:10;100416.66;;;8.85;83.12
50430;BME280;36359;41.556;-8.418;2023-02-23T01:30:37;100412.78;;;8.78;83.44
50430;BME280;36359;41.556;-8.418;2023-02-23T01:33:03;100410.50;;;8.74;82.65
50430;BME280;36359;41.556;-8.418;2023-02-23T01:35:29;100419.38;;;8.55;81.81
50430;BME280;36359;41.556;-8.418;2023-02-23T01:37:55;100416.47;;;8.47;83.46
50430;BME280;36359;41.556;-8.418;2023-02-23T01:40:25;100403.88;;;8.57;85.09
50430;BME280;36359;41.556;-8.418;2023-02-23T01:43:12;100404.94;;;9.16;85.38
50430;BME280;36359;41.556;-8.418;2023-02-23T01:45:40;100399.84;;;9.51;83.71
50430;BME280;36359;41.556;-8.418;2023-02-23T01:48:11;100401.56;;;9.43;80.64
50430;BME280;36359;41.556;-8.418;2023-02-23T01:50:46;100402.22;;;9.25;79.04
50430;BME280;36359;41.556;-8.418;2023-02-23T01:53:14;100395.34;;;9.02;80.28
50430;BME280;36359;41.556;-8.418;2023-02-23T01:55:40;100406.53;;;8.47;81.34
50430;BME280;36359;41.556;-8.418;2023-02-23T01:58:13;100403.38;;;8.21;84.02
50430;BME280;36359;41.556;-8.418;2023-02-23T02:00:46;100406.56;;;7.94;83.99
50430;BME280;36359;41.556;-8.418;2023-02-23T02:03:30;100399.97;;;7.66;84.55
50430;BME280;36359;41.556;-8.418;2023-02-23T02:05:59;100395.47;;;7.55;86.36
50430;BME280;36359;41.556;-8.418;2023-02-23T02:08:28;100393.09;;;8.15;86.15
50430;BME280;36359;41.556;-8.418;2023-02-23T02:10:57;100401.09;;;8.05;85.03
50430;BME280;36359;41.556;-8.418;2023-02-23T02:13:29;100395.13;;;7.48;85.23
50430;BME280;36359;41.556;-8.418;2023-02-23T02:16:29;100389.94;;;7.57;86.00
50430;BME280;36359;41.556;-8.418;2023-02-23T02:19:13;100386.69;;;7.74;85.78
50430;BME280;36359;41.556;-8.418;2023-02-23T02:35:58;100384.03;;;8.26;84.97
50430;BME280;36359;41.556;-8.418;2023-02-23T02:41:14;100377.31;;;7.78;83.61
50430;BME280;36359;41.556;-8.418;2023-02-23T02:46:21;100377.66;;;7.53;85.88
50430;BME280;36359;41.556;-8.418;2023-02-23T02:57:05;100375.44;;;7.58;84.74
50430;BME280;36359;41.556;-8.418;2023-02-23T02:59:44;100366.53;;;7.14;85.19
50430;BME280;36359;41.556;-8.418;2023-02-23T03:02:31;100369.19;;;7.25;89.53
50430;BME280;36359;41.556;-8.418;2023-02-23T03:05:19;100359.28;;;7.14;86.75
50430;BME280;36359;41.556;-8.418;2023-02-23T03:08:20;100358.38;;;7.36;85.33
50430;BME280;36359;41.556;-8.418;2023-02-23T03:11:09;100351.97;;;7.37;85.81
50430;BME280;36359;41.556;-8.418;2023-02-23T03:14:07;100347.50;;;7.80;86.02
50430;BME280;36359;41.556;-8.418;2023-02-23T03:20:21;100351.25;;;7.88;89.60
50430;BME280;36359;41.556;-8.418;2023-02-23T03:23:39;100347.22;;;8.04;88.14
50430;BME280;36359;41.556;-8.418;2023-02-23T03:26:37;100340.81;;;8.05;83.79
50430;BME280;36359;41.556;-8.418;2023-02-23T03:35:51;100352.94;;;7.68;83.64
50430;BME280;36359;41.556;-8.418;2023-02-23T03:41:51;100348.06;;;7.83;83.81
50430;BME280;36359;41.556;-8.418;2023-02-23T03:44:40;100347.34;;;7.81;83.63
50430;BME280;36359;41.556;-8.418;2023-02-23T03:47:28;100343.63;;;7.82;83.58
50430;BME280;36359;41.556;-8.418;2023-02-23T03:50:53;100333.97;;;7.80;83.83
50430;BME280;36359;41.556;-8.418;2023-02-23T03:54:07;100323.28;;;7.99;84.36
50430;BME280;36359;41.556;-8.418;2023-02-23T03:56:54;100318.84;;;8.19;82.76
50430;BME280;36359;41.556;-8.418;2023-02-23T03:59:51;100308.50;;;8.64;90.93
50430;BME280;36359;41.556;-8.418;2023-02-23T04:02:41;100294.69;;;8.58;81.31
50430;BME280;36359;41.556;-8.418;2023-02-23T04:05:28;100311.19;;;8.24;80.52
50430;BME280;36359;41.556;-8.418;2023-02-23T04:08:17;100301.75;;;7.67;81.62
50430;BME280;36359;41.556;-8.418;2023-02-23T04:11:22;100313.28;;;8.20;89.98
50430;BME280;36359;41.556;-8.418;2023-02-23T04:14:14;100315.31;;;7.56;82.86
50430;BME280;36359;41.556;-8.418;2023-02-23T04:16:42;100312.28;;;7.49;84.11
50430;BME280;36359;41.556;-8.418;2023-02-23T04:19:08;100296.19;;;8.10;86.40
50430;BME280;36359;41.556;-8.418;2023-02-23T04:21:33;100302.16;;;8.14;82.49
50430;BME280;36359;41.556;-8.418;2023-02-23T04:23:59;100298.19;;;8.39;81.68
50430;BME280;36359;41.556;-8.418;2023-02-23T04:26:25;100296.25;;;8.60;85.52
50430;BME280;36359;41.556;-8.418;2023-02-23T04:28:50;100290.19;;;8.78;82.12
50430;BME280;36359;41.556;-8.418;2023-02-23T04:31:16;100297.56;;;8.66;79.51
50430;BME280;36359;41.556;-8.418;2023-02-23T04:33:43;100303.22;;;8.53;82.53
50430;BME280;36359;41.556;-8.418;2023-02-23T04:36:09;100308.22;;;8.27;79.74
50430;BME280;36359;41.556;-8.418;2023-02-23T04:38:34;100314.16;;;8.21;80.64
50430;BME280;36359;41.556;-8.418;2023-02-23T04:41:00;100316.75;;;8.02;80.60
50430;BME280;36359;41.556;-8.418;2023-02-23T04:43:26;100312.66;;;8.07;82.95
50430;BME280;36359;41.556;-8.418;2023-02-23T04:45:51;100312.53;;;7.88;81.96
50430;BME280;36359;41.556;-8.418;2023-02-23T04:48:17;100301.34;;;8.23;89.89
50430;BME280;36359;41.556;-8.418;2023-02-23T04:50:43;100303.09;;;8.24;81.72
50430;BME280;36359;41.556;-8.418;2023-02-23T04:53:09;100298.25;;;8.28;80.98
50430;BME280;36359;41.556;-8.418;2023-02-23T04:55:34;100307.41;;;7.64;83.43
50430;BME280;36359;41.556;-8.418;2023-02-23T04:58:00;100297.84;;;8.02;83.39
50430;BME280;36359;41.556;-8.418;2023-02-23T05:00:27;100306.28;;;7.87;81.12
50430;BME280;36359;41.556;-8.418;2023-02-23T05:02:54;100299.28;;;8.06;84.46
50430;BME280;36359;41.556;-8.418;2023-02-23T05:05:20;100304.66;;;7.75;80.67
50430;BME280;36359;41.556;-8.418;2023-02-23T05:07:46;100298.56;;;8.04;83.71
50430;BME280;36359;41.556;-8.418;2023-02-23T05:10:12;100295.59;;;8.07;81.77
50430;BME280;36359;41.556;-8.418;2023-02-23T05:12:38;100304.38;;;7.78;80.87
50430;BME280;36359;41.556;-8.418;2023-02-23T05:15:04;100303.31;;;7.90;84.03
50430;BME280;36359;41.556;-8.418;2023-02-23T05:17:30;100311.69;;;7.87;81.57
50430;BME280;36359;41.556;-8.418;2023-02-23T05:19:55;100296.50;;;8.17;83.11
50430;BME280;36359;41.556;-8.418;2023-02-23T05:22:21;100305.75;;;7.93;81.29
50430;BME280;36359;41.556;-8.418;2023-02-23T05:24:47;100308.53;;;7.82;81.00
50430;BME280;36359;41.556;-8.418;2023-02-23T05:27:13;100307.75;;;7.17;82.76
50430;BME280;36359;41.556;-8.418;2023-02-23T05:29:40;100309.84;;;7.67;83.82
50430;BME280;36359;41.556;-8.418;2023-02-23T05:32:06;100306.94;;;7.59;82.54
50430;BME280;36359;41.556;-8.418;2023-02-23T05:34:32;100294.69;;;7.34;84.20
50430;BME280;36359;41.556;-8.418;2023-02-23T05:36:58;100288.81;;;7.28;82.87
50430;BME280;36359;41.556;-8.418;2023-02-23T05:39:23;100300.09;;;7.55;83.19
50430;BME280;36359;41.556;-8.418;2023-02-23T05:41:49;100290.00;;;8.29;88.43
50430;BME280;36359;41.556;-8.418;2023-02-23T05:44:15;100294.88;;;8.35;83.07
50430;BME280;36359;41.556;-8.418;2023-02-23T05:46:40;100294.13;;;8.03;80.87
50430;BME280;36359;41.556;-8.418;2023-02-23T05:49:06;100294.19;;;7.61;84.17
50430;BME280;36359;41.556;-8.418;2023-02-23T05:51:33;100294.66;;;7.66;80.11
50430;BME280;36359;41.556;-8.418;2023-02-23T05:54:00;100284.81;;;7.86;83.71
50430;BME280;36359;41.556;-8.418;2023-02-23T05:56:26;100289.97;;;7.68;82.49
50430;BME280;36359;41.556;-8.418;2023-02-23T05:58:54;100283.56;;;7.69;82.31
50430;BME280;36359;41.556;-8.418;2023-02-23T06:01:20;100287.72;;;7.52;80.75
50430;BME280;36359;41.556;-8.418;2023-02-23T06:03:47;100287.72;;;7.31;80.97
50430;BME280;36359;41.556;-8.418;2023-02-23T06:06:13;100295.38;;;7.68;84.45
50430;BME280;36359;41.556;-8.418;2023-02-23T06:08:40;100284.69;;;7.45;81.27
50430;BME280;36359;41.556;-8.418;2023-02-23T06:11:05;100293.00;;;7.54;83.63
50430;BME280;36359;41.556;-8.418;2023-02-23T06:16:04;100285.41;;;7.26;82.09
50430;BME280;36359;41.556;-8.418;2023-02-23T06:18:30;100295.63;;;7.12;82.32
50430;BME280;36359;41.556;-8.418;2023-02-23T06:20:58;100292.53;;;6.84;83.25
50430;BME280;36359;41.556;-8.418;2023-02-23T06:23:24;100286.72;;;7.32;85.00
50430;BME280;36359;41.556;-8.418;2023-02-23T06:25:50;100287.13;;;6.95;83.95
50430;BME280;36359;41.556;-8.418;2023-02-23T06:28:16;100285.16;;;7.30;86.03
50430;BME280;36359;41.556;-8.418;2023-02-23T06:30:41;100283.91;;;7.34;82.32
50430;BME280;36359;41.556;-8.418;2023-02-23T06:33:07;100291.25;;;6.99;84.52
50430;BME280;36359;41.556;-8.418;2023-02-23T06:35:33;100290.63;;;7.39;84.38
50430;BME280;36359;41.556;-8.418;2023-02-23T06:38:00;100295.53;;;7.34;82.88
50430;BME280;36359;41.556;-8.418;2023-02-23T06:40:26;100287.22;;;7.26;83.06
50430;BME280;36359;41.556;-8.418;2023-02-23T06:42:53;100289.41;;;7.32;84.77
50430;BME280;36359;41.556;-8.418;2023-02-23T06:45:18;100297.19;;;7.25;82.82
50430;BME280;36359;41.556;-8.418;2023-02-23T06:47:44;100297.59;;;7.21;83.03
50430;BME280;36359;41.556;-8.418;2023-02-23T06:50:10;100285.34;;;7.05;81.88
50430;BME280;36359;41.556;-8.418;2023-02-23T06:52:36;100280.88;;;6.95;83.10
50430;BME280;36359;41.556;-8.418;2023-02-23T06:55:02;100281.47;;;6.98;84.05
50430;BME280;36359;41.556;-8.418;2023-02-23T06:57:28;100288.78;;;7.08;84.10
50430;BME280;36359;41.556;-8.418;2023-02-23T06:59:54;100276.81;;;7.00;82.28
50430;BME280;36359;41.556;-8.418;2023-02-23T07:02:19;100266.44;;;7.38;88.54
50430;BME280;36359;41.556;-8.418;2023-02-23T07:04:45;100264.84;;;7.14;83.19
50430;BME280;36359;41.556;-8.418;2023-02-23T07:07:12;100273.34;;;7.10;84.30
50430;BME280;36359;41.556;-8.418;2023-02-23T07:09:40;100271.25;;;7.34;83.87
50430;BME280;36359;41.556;-8.418;2023-02-23T07:12:08;100259.34;;;7.58;81.60
50430;BME280;36359;41.556;-8.418;2023-02-23T07:14:33;100263.09;;;7.45;83.39
50430;BME280;36359;41.556;-8.418;2023-02-23T07:16:59;100262.22;;;7.87;85.71
50430;BME280;36359;41.556;-8.418;2023-02-23T07:19:25;100270.34;;;7.66;81.58
50430;BME280;36359;41.556;-8.418;2023-02-23T07:21:51;100268.56;;;7.34;79.93
50430;BME280;36359;41.556;-8.418;2023-02-23T07:24:18;100253.34;;;7.12;80.56
50430;BME280;36359;41.556;-8.418;2023-02-23T07:26:43;100255.31;;;7.31;83.53
50430;BME280;36359;41.556;-8.418;2023-02-23T07:29:11;100254.41;;;7.21;81.33
50430;BME280;36359;41.556;-8.418;2023-02-23T07:31:38;100247.94;;;7.12;81.70
50430;BME280;36359;41.556;-8.418;2023-02-23T07:34:03;100239.44;;;7.59;82.72
50430;BME280;36359;41.556;-8.418;2023-02-23T07:36:29;100233.03;;;8.52;84.14
50430;BME280;36359;41.556;-8.418;2023-02-23T07:38:55;100237.47;;;9.50;85.73
50430;BME280;36359;41.556;-8.418;2023-02-23T07:41:21;100248.91;;;8.85;71.91
50430;BME280;36359;41.556;-8.418;2023-02-23T07:43:47;100251.19;;;8.00;74.61
50430;BME280;36359;41.556;-8.418;2023-02-23T07:46:13;100254.00;;;7.67;73.95
50430;BME280;36359;41.556;-8.418;2023-02-23T07:48:41;100263.69;;;7.49;76.24
50430;BME280;36359;41.556;-8.418;2023-02-23T07:51:10;100252.03;;;7.48;79.62
50430;BME280;36359;41.556;-8.418;2023-02-23T07:53:36;100257.84;;;7.65;77.78
50430;BME280;36359;41.556;-8.418;2023-02-23T07:56:02;100256.63;;;7.58;79.82
50430;BME280;36359;41.556;-8.418;2023-02-23T07:58:28;100264.94;;;7.66;79.43
50430;BME280;36359;41.556;-8.418;2023-02-23T08:00:57;100262.34;;;7.64;77.28
50430;BME280;36359;41.556;-8.418;2023-02-23T08:03:23;100252.97;;;8.51;78.44
50430;BME280;36359;41.556;-8.418;2023-02-23T08:05:48;100254.84;;;8.60;76.88
50430;BME280;36359;41.556;-8.418;2023-02-23T08:08:14;100252.66;;;8.44;76.53
50430;BME280;36359;41.556;-8.418;2023-02-23T08:10:40;100253.66;;;8.12;74.84
50430;BME280;36359;41.556;-8.418;2023-02-23T08:13:06;100258.75;;;8.06;75.21
50430;BME280;36359;41.556;-8.418;2023-02-23T08:15:32;100252.31;;;8.37;82.53
50430;BME280;36359;41.556;-8.418;2023-02-23T08:17:58;100258.16;;;8.33;77.82
50430;BME280;36359;41.556;-8.418;2023-02-23T08:20:24;100252.94;;;8.41;75.69
50430;BME280;36359;41.556;-8.418;2023-02-23T08:22:56;100265.94;;;8.26;75.06
50430;BME280;36359;41.556;-8.418;2023-02-23T08:25:23;100265.06;;;8.16;76.06
50430;BME280;36359;41.556;-8.418;2023-02-23T08:27:49;100263.41;;;8.34;77.53
50430;BME280;36359;41.556;-8.418;2023-02-23T08:30:21;100268.13;;;9.12;81.19
50430;BME280;36359;41.556;-8.418;2023-02-23T08:32:47;100269.28;;;8.90;70.57
50430;BME280;36359;41.556;-8.418;2023-02-23T08:35:13;100271.56;;;8.44;73.50
50430;BME280;36359;41.556;-8.418;2023-02-23T08:37:39;100272.06;;;8.59;75.16
50430;BME280;36359;41.556;-8.418;2023-02-23T08:40:07;100275.41;;;8.92;82.05
50430;BME280;36359;41.556;-8.418;2023-02-23T08:42:34;100279.94;;;9.49;78.06
50430;BME280;36359;41.556;-8.418;2023-02-23T08:45:02;100275.28;;;9.42;75.47
50430;BME280;36359;41.556;-8.418;2023-02-23T08:47:28;100267.84;;;9.15;75.37
50430;BME280;36359;41.556;-8.418;2023-02-23T08:49:54;100269.88;;;8.43;72.84
50430;BME280;36359;41.556;-8.418;2023-02-23T08:52:22;100257.59;;;7.99;75.95
50430;BME280;36359;41.556;-8.418;2023-02-23T08:54:49;100257.53;;;8.50;81.36
50430;BME280;36359;41.556;-8.418;2023-02-23T08:57:15;100253.81;;;8.51;76.92
50430;BME280;36359;41.556;-8.418;2023-02-23T08:59:42;100252.94;;;8.41;76.86
50430;BME280;36359;41.556;-8.418;2023-02-23T09:02:12;100263.00;;;9.38;84.39
50430;BME280;36359;41.556;-8.418;2023-02-23T09:04:39;100260.91;;;9.98;75.67
50430;BME280;36359;41.556;-8.418;2023-02-23T09:07:16;100264.72;;;9.19;76.84
50430;BME280;36359;41.556;-8.418;2023-02-23T09:09:42;100264.28;;;9.14;73.53
50430;BME280;36359;41.556;-8.418;2023-02-23T09:12:08;100260.88;;;8.83;73.47
50430;BME280;36359;41.556;-8.418;2023-02-23T09:14:34;100260.44;;;9.46;75.71
50430;BME280;36359;41.556;-8.418;2023-02-23T09:17:01;100257.53;;;8.60;69.84
50430;BME280;36359;41.556;-8.418;2023-02-23T09:19:28;100261.94;;;10.24;82.79
50430;BME280;36359;41.556;-8.418;2023-02-23T09:22:00;100265.25;;;9.71;69.35
50430;BME280;36359;41.556;-8.418;2023-02-23T09:24:27;100257.66;;;8.58;72.15
50430;BME280;36359;41.556;-8.418;2023-02-23T09:26:54;100251.06;;;9.01;82.45
50430;BME280;36359;41.556;-8.418;2023-02-23T09:29:20;100265.06;;;9.92;79.41
50430;BME280;36359;41.556;-8.418;2023-02-23T09:31:47;100253.69;;;9.69;74.50
50430;BME280;36359;41.556;-8.418;2023-02-23T09:34:15;100256.41;;;9.69;80.13
50430;BME280;36359;41.556;-8.418;2023-02-23T09:36:41;100245.94;;;10.59;79.86
50430;BME280;36359;41.556;-8.418;2023-02-23T09:39:07;100251.91;;;10.35;71.39
50430;BME280;36359;41.556;-8.418;2023-02-23T09:49:44;100256.59;;;9.19;72.93
50430;BME280;36359;41.556;-8.418;2023-02-23T09:52:24;100246.19;;;9.05;79.97
50430;BME280;36359;41.556;-8.418;2023-02-23T09:54:51;100256.06;;;9.06;73.68
50430;BME280;36359;41.556;-8.418;2023-02-23T09:57:22;100255.75;;;9.48;73.24
50430;BME280;36359;41.556;-8.418;2023-02-23T09:59:49;100250.44;;;10.50;78.69
50430;BME280;36359;41.556;-8.418;2023-02-23T10:02:37;100254.38;;;10.28;72.03
50430;BME280;36359;41.556;-8.418;2023-02-23T10:05:09;100244.84;;;10.52;70.18
50430;BME280;36359;41.556;-8.418;2023-02-23T10:07:46;100247.59;;;10.69;72.56
50430;BME280;36359;41.556;-8.418;2023-02-23T10:15:51;100233.72;;;12.22;64.31
50430;BME280;36359;41.556;-8.418;2023-02-23T10:18:29;100233.44;;;11.55;63.45
50430;BME280;36359;41.556;-8.418;2023-02-23T10:21:04;100223.00;;;11.69;69.75
50430;BME280;36359;41.556;-8.418;2023-02-23T10:26:07;100222.34;;;11.49;70.92
50430;BME280;36359;41.556;-8.418;2023-02-23T10:28:40;100223.56;;;10.75;60.03
50430;BME280;36359;41.556;-8.418;2023-02-23T10:31:42;100222.50;;;10.40;61.86
50430;BME280;36359;41.556;-8.418;2023-02-23T10:34:14;100210.38;;;10.07;62.79
50430;BME280;36359;41.556;-8.418;2023-02-23T10:36:52;100213.69;;;9.91;61.32
50430;BME280;36359;41.556;-8.418;2023-02-23T10:39:22;100202.25;;;10.62;66.39
50430;BME280;36359;41.556;-8.418;2023-02-23T10:41:48;100206.06;;;9.67;60.81
50430;BME280;36359;41.556;-8.418;2023-02-23T10:44:21;100209.25;;;9.52;62.11
50430;BME280;36359;41.556;-8.418;2023-02-23T10:46:54;100203.88;;;9.23;62.81
50430;BME280;36359;41.556;-8.418;2023-02-23T10:49:25;100205.28;;;9.37;61.72
50430;BME280;36359;41.556;-8.418;2023-02-23T10:51:54;100198.59;;;9.31;61.53
50430;BME280;36359;41.556;-8.418;2023-02-23T10:54:35;100191.84;;;9.65;64.98
50430;BME280;36359;41.556;-8.418;2023-02-23T10:57:03;100184.41;;;9.67;62.17
50430;BME280;36359;41.556;-8.418;2023-02-23T10:59:30;100192.00;;;9.44;60.79
50430;BME280;36359;41.556;-8.418;2023-02-23T11:01:56;100179.34;;;9.82;64.00
50430;BME280;36359;41.556;-8.418;2023-02-23T11:04:30;100181.81;;;10.02;62.77
50430;BME280;36359;41.556;-8.418;2023-02-23T11:07:27;100175.72;;;9.63;60.30
50430;BME280;36359;41.556;-8.418;2023-02-23T11:10:24;100180.34;;;9.53;61.20
50430;BME280;36359;41.556;-8.418;2023-02-23T11:12:50;100175.13;;;9.69;61.68
50430;BME280;36359;41.556;-8.418;2023-02-23T11:18:02;100164.41;;;10.05;62.97
50430;BME280;36359;41.556;-8.418;2023-02-23T11:20:34;100172.59;;;10.33;62.26
50430;BME280;36359;41.556;-8.418;2023-02-23T11:23:10;100169.47;;;9.90;65.87
50430;BME280;36359;41.556;-8.418;2023-02-23T11:25:42;100170.50;;;10.27;61.80
50430;BME280;36359;41.556;-8.418;2023-02-23T11:28:17;100179.28;;;10.74;65.50
50430;BME280;36359;41.556;-8.418;2023-02-23T11:30:48;100167.44;;;10.75;61.33
50430;BME280;36359;41.556;-8.418;2023-02-23T11:33:27;100177.03;;;11.05;63.16
50430;BME280;36359;41.556;-8.418;2023-02-23T11:35:58;100167.75;;;11.34;62.25
50430;BME280;36359;41.556;-8.418;2023-02-23T11:38:27;100170.66;;;11.41;60.53
50430;BME280;36359;41.556;-8.418;2023-02-23T11:41:04;100166.16;;;11.05;58.90
50430;BME280;36359;41.556;-8.418;2023-02-23T11:43:31;100157.91;;;10.71;60.08
50430;BME280;36359;41.556;-8.418;2023-02-23T11:45:59;100111.38;;;10.20;57.37
50430;BME280;36359;41.556;-8.418;2023-02-23T11:48:29;100121.53;;;9.91;56.97
50430;BME280;36359;41.556;-8.418;2023-02-23T11:50:57;100110.91;;;10.07;57.15
50430;BME280;36359;41.556;-8.418;2023-02-23T11:53:39;100079.94;;;9.82;58.12
50430;BME280;36359;41.556;-8.418;2023-02-23T11:56:08;100107.00;;;9.92;60.26
50430;BME280;36359;41.556;-8.418;2023-02-23T11:58:46;100134.13;;;9.92;59.71
50430;BME280;36359;41.556;-8.418;2023-02-23T12:01:17;100110.16;;;9.60;62.18
50430;BME280;36359;41.556;-8.418;2023-02-23T12:03:55;100112.09;;;9.40;62.65
50430;BME280;36359;41.556;-8.418;2023-02-23T12:06:38;100135.09;;;9.63;60.52
50430;BME280;36359;41.556;-8.418;2023-02-23T12:09:26;100095.56;;;9.98;60.04
50430;BME280;36359;41.556;-8.418;2023-02-23T12:12:11;100074.44;;;10.19;60.64
50430;BME280;36359;41.556;-8.418;2023-02-23T12:14:50;100093.00;;;10.42;60.14
50430;BME280;36359;41.556;-8.418;2023-02-23T12:17:26;100118.88;;;10.36;61.27
50430;BME280;36359;41.556;-8.418;2023-02-23T12:20:05;100114.50;;;10.26;59.66
50430;BME280;36359;41.556;-8.418;2023-02-23T12:22:42;100106.94;;;10.01;58.04
50430;BME280;36359;41.556;-8.418;2023-02-23T12:28:10;100082.41;;;9.75;63.35
50430;BME280;36359;41.556;-8.418;2023-02-23T12:30:57;100094.69;;;9.70;62.31
50430;BME280;36359;41.556;-8.418;2023-02-23T12:33:40;100084.63;;;9.90;62.85
50430;BME280;36359;41.556;-8.418;2023-02-23T12:36:38;100077.97;;;10.30;62.75
50430;BME280;36359;41.556;-8.418;2023-02-23T12:39:29;100079.84;;;10.47;58.15
50430;BME280;36359;41.556;-8.418;2023-02-23T12:42:15;100069.50;;;10.68;57.38
50430;BME280;36359;41.556;-8.418;2023-02-23T12:44:52;100060.00;;;11.17;59.52
50430;BME280;36359;41.556;-8.418;2023-02-23T12:47:39;100065.56;;;11.07;54.74
50430;BME280;36359;41.556;-8.418;2023-02-23T12:50:23;100052.31;;;11.04;53.58
50430;BME280;36359;41.556;-8.418;2023-02-23T12:52:57;100054.56;;;11.17;52.29
50430;BME280;36359;41.556;-8.418;2023-02-23T13:01:08;100053.09;;;10.52;52.51
50430;BME280;36359;41.556;-8.418;2023-02-23T13:06:53;100036.78;;;10.70;52.99
50430;BME280;36359;41.556;-8.418;2023-02-23T13:10:00;100021.97;;;10.64;52.63
50430;BME280;36359;41.556;-8.418;2023-02-23T13:18:26;99998.31;;;10.75;52.07
50430;BME280;36359;41.556;-8.418;2023-02-23T13:21:10;100013.91;;;11.25;53.38
50430;BME280;36359;41.556;-8.418;2023-02-23T13:23:52;100026.06;;;11.12;51.20
50430;BME280;36359;41.556;-8.418;2023-02-23T13:26:31;100015.84;;;11.06;52.20
50430;BME280;36359;41.556;-8.418;2023-02-23T13:29:44;100010.72;;;11.37;52.31
50430;BME280;36359;41.556;-8.418;2023-02-23T13:31:50;99999.53;;;11.83;50.73
50430;BME280;36359;41.556;-8.418;2023-02-23T13:34:32;100008.28;;;11.60;51.15
50430;BME280;36359;41.556;-8.418;2023-02-23T13:37:00;99995.59;;;11.77;50.53
50430;BME280;36359;41.556;-8.418;2023-02-23T13:40:02;100000.38;;;11.33;49.45
50430;BME280;36359;41.556;-8.418;2023-02-23T13:46:03;99997.84;;;11.40;55.13
50430;BME280;36359;41.556;-8.418;2023-02-23T13:53:57;99995.63;;;11.43;51.75
50430;BME280;36359;41.556;-8.418;2023-02-23T13:56:30;99978.34;;;11.44;53.11
50430;BME280;36359;41.556;-8.418;2023-02-23T13:59:03;99968.41;;;11.77;54.13
50430;BME280;36359;41.556;-8.418;2023-02-23T14:01:42;99971.25;;;11.59;52.00
50430;BME280;36359;41.556;-8.418;2023-02-23T14:04:23;99971.47;;;11.74;50.47
50430;BME280;36359;41.556;-8.418;2023-02-23T14:07:13;99957.75;;;11.33;51.23
50430;BME280;36359;41.556;-8.418;2023-02-23T14:09:52;99957.25;;;11.30;51.49
50430;BME280;36359;41.556;-8.418;2023-02-23T14:12:42;99955.25;;;11.48;52.51
50430;BME280;36359;41.556;-8.418;2023-02-23T14:20:45;99936.97;;;11.67;50.65
50430;BME280;36359;41.556;-8.418;2023-02-23T14:28:33;99903.56;;;11.32;48.27
50430;BME280;36359;41.556;-8.418;2023-02-23T14:31:16;99873.03;;;11.30;47.79
50430;BME280;36359;41.556;-8.418;2023-02-23T14:38:59;99902.59;;;11.49;50.12
50430;BME280;36359;41.556;-8.418;2023-02-23T14:41:39;99913.78;;;11.30;48.15
50430;BME280;36359;41.556;-8.418;2023-02-23T14:46:59;99921.03;;;11.21;49.45
50430;BME280;36359;41.556;-8.418;2023-02-23T14:49:27;99904.22;;;11.18;50.40
50430;BME280;36359;41.556;-8.418;2023-02-23T14:51:55;99911.75;;;11.40;51.48
50430;BME280;36359;41.556;-8.418;2023-02-23T14:54:37;99893.88;;;11.21;51.77
50430;BME280;36359;41.556;-8.418;2023-02-23T14:57:25;99894.41;;;11.25;51.83
50430;BME280;36359;41.556;-8.418;2023-02-23T15:02:23;99887.91;;;11.18;49.06
50430;BME280;36359;41.556;-8.418;2023-02-23T15:04:50;99894.78;;;11.38;47.48